Time;durP1;ratioP1;P1;durP2;ratioP2;P2;SDS_P1;SDS_P2;PMS_P1;PMS_P2;Temp;Humidity;BMP_temperature;BMP_pressure;BME280_temperature;BME280_humidity;BME280_pressure;Samples;Min_cycle;Max_cycle;Signal;HPM_P1;HPM_P2
2022/03/11 00:00:17;;;;;;;11.80;8.70;;;8.10;99.90;;;;;;5122791;28;20466;-59
2022/03/11 00:02:44;;;;;;;15.00;7.67;;;8.00;99.90;;;;;;5111629;28;20467;-59
2022/03/11 00:05:16;;;;;;;10.83;8.23;;;8.10;99.90;;;;;;5105550;28;20456;-58
2022/03/11 00:07:43;;;;;;;10.90;8.27;;;8.10;99.90;;;;;;5121400;28;20460;-56
2022/03/11 00:10:13;;;;;;;9.90;7.60;;;8.10;99.90;;;;;;5121918;28;20460;-57
2022/03/11 00:12:42;;;;;;;10.03;8.00;;;8.10;99.90;;;;;;5121015;28;20459;-59
2022/03/11 00:15:10;;;;;;;9.63;8.53;;;8.00;99.90;;;;;;5121156;28;20463;-58
2022/03/11 00:17:37;;;;;;;12.47;8.53;;;8.00;99.90;;;;;;5121532;28;20483;-59
2022/03/11 00:20:07;;;;;;;10.43;8.83;;;8.00;99.90;;;;;;5113421;28;20480;-59
2022/03/11 00:22:37;;;;;;;9.73;7.97;;;7.90;99.90;;;;;;5100649;28;20456;-57
2022/03/11 00:25:05;;;;;;;9.67;7.87;;;7.90;99.90;;;;;;5121158;28;20466;-53
2022/03/11 00:27:35;;;;;;;10.67;8.30;;;7.90;99.90;;;;;;5115497;28;20539;-58
2022/03/11 00:30:06;;;;;;;8.23;7.40;;;7.90;99.90;;;;;;5101560;28;20733;-59
2022/03/11 00:32:41;;;;;;;10.10;8.20;;;7.90;99.90;;;;;;5101898;28;20461;-58
2022/03/11 00:35:10;;;;;;;8.77;7.87;;;7.90;99.90;;;;;;5101094;28;20460;-58
2022/03/11 00:37:37;;;;;;;9.77;8.20;;;7.90;99.90;;;;;;5104070;28;20540;-58
2022/03/11 00:40:06;;;;;;;10.10;8.43;;;7.80;99.90;;;;;;5121962;28;20451;-56
2022/03/11 00:42:34;;;;;;;10.30;8.23;;;7.90;99.90;;;;;;5110347;28;20502;-58
2022/03/11 00:45:15;;;;;;;9.90;7.70;;;7.90;99.90;;;;;;5100795;28;20488;-56
2022/03/11 00:47:42;;;;;;;11.00;8.30;;;7.90;99.90;;;;;;5106669;28;20459;-56
2022/03/11 00:50:14;;;;;;;10.50;8.20;;;7.90;99.90;;;;;;5118294;28;20470;-56
2022/03/11 00:52:41;;;;;;;11.53;8.30;;;7.80;99.90;;;;;;5120041;28;20464;-58
2022/03/11 00:55:12;;;;;;;9.47;8.40;;;7.70;99.90;;;;;;5106009;28;20467;-56
2022/03/11 00:57:40;;;;;;;11.53;8.93;;;7.70;99.90;;;;;;5099334;28;20471;-56
2022/03/11 01:00:09;;;;;;;9.40;7.83;;;7.70;99.90;;;;;;5114187;28;20901;-58
2022/03/11 01:02:40;;;;;;;11.07;8.50;;;7.70;99.90;;;;;;5118942;28;20460;-59
2022/03/11 01:05:15;;;;;;;11.10;8.93;;;7.60;99.90;;;;;;5119134;28;20554;-58
2022/03/11 01:07:46;;;;;;;12.53;7.53;;;7.70;99.90;;;;;;5099759;28;20455;-54
2022/03/11 01:10:13;;;;;;;12.90;7.37;;;7.60;99.90;;;;;;5110942;28;20463;-59
2022/03/11 01:12:41;;;;;;;10.33;9.23;;;7.60;99.90;;;;;;5119177;28;20525;-59
2022/03/11 01:15:13;;;;;;;10.73;8.67;;;7.60;99.90;;;;;;5118317;28;20466;-59
2022/03/11 01:17:45;;;;;;;13.37;8.67;;;7.60;99.90;;;;;;5118775;28;20503;-59
2022/03/11 01:20:21;;;;;;;12.00;8.60;;;7.50;99.90;;;;;;5117196;28;20494;-56
2022/03/11 01:22:53;;;;;;;12.37;8.77;;;7.50;99.90;;;;;;5119024;28;20459;-57
2022/03/11 01:25:23;;;;;;;12.90;8.20;;;7.50;99.90;;;;;;5118427;28;20466;-59
2022/03/11 01:27:50;;;;;;;11.40;8.33;;;7.50;99.90;;;;;;5118859;28;20460;-59
2022/03/11 01:30:19;;;;;;;11.97;9.00;;;7.40;99.90;;;;;;5112230;28;20983;-59
2022/03/11 01:32:53;;;;;;;12.00;10.13;;;7.40;99.90;;;;;;5098608;28;20464;-59
2022/03/11 01:35:20;;;;;;;10.70;8.90;;;7.30;99.90;;;;;;5097698;28;20461;-53
2022/03/11 01:37:49;;;;;;;10.77;8.13;;;7.40;99.90;;;;;;5097757;28;20792;-59
2022/03/11 01:40:19;;;;;;;12.20;9.30;;;7.30;99.90;;;;;;5099735;28;20465;-59
2022/03/11 01:42:49;;;;;;;11.90;9.30;;;7.40;99.90;;;;;;5111843;28;20456;-57
2022/03/11 01:45:16;;;;;;;10.77;9.10;;;7.40;99.90;;;;;;5097863;28;20975;-59
2022/03/11 01:47:43;;;;;;;10.70;8.80;;;7.40;99.90;;;;;;5097837;28;20917;-55
2022/03/11 01:50:17;;;;;;;11.40;9.40;;;7.40;99.90;;;;;;5116534;28;20816;-57
2022/03/11 01:52:47;;;;;;;11.53;9.37;;;7.40;99.90;;;;;;5116604;28;20524;-57
2022/03/11 01:55:19;;;;;;;12.50;10.03;;;7.30;99.90;;;;;;5108355;28;20536;-58
2022/03/11 01:57:53;;;;;;;12.47;10.03;;;7.30;99.90;;;;;;5097712;28;20514;-59
2022/03/11 02:00:26;;;;;;;10.27;8.63;;;7.20;99.90;;;;;;5098166;28;20467;-59
2022/03/11 02:02:53;;;;;;;16.63;9.80;;;7.20;99.90;;;;;;5111025;28;20468;-58
2022/03/11 02:05:30;;;;;;;12.83;9.93;;;7.10;99.90;;;;;;5108989;28;20530;-56
2022/03/11 02:07:58;;;;;;;11.87;9.93;;;7.10;99.90;;;;;;5113794;28;20461;-56
2022/03/11 02:10:32;;;;;;;11.67;9.17;;;7.20;99.90;;;;;;5118392;28;20463;-55
2022/03/11 02:13:08;;;;;;;11.67;9.70;;;7.10;99.90;;;;;;5106085;28;20465;-56
2022/03/11 02:15:35;;;;;;;11.40;9.87;;;7.20;99.90;;;;;;5097205;28;20845;-55
2022/03/11 02:18:03;;;;;;;12.10;9.17;;;7.20;99.90;;;;;;5097042;28;20468;-55
2022/03/11 02:20:32;;;;;;;14.37;9.60;;;7.10;99.90;;;;;;5108207;28;20799;-53
2022/03/11 02:23:02;;;;;;;11.40;9.23;;;7.00;99.90;;;;;;5116625;28;20466;-55
2022/03/11 02:25:33;;;;;;;10.50;8.40;;;7.10;99.90;;;;;;5117397;28;20508;-54
2022/03/11 02:28:03;;;;;;;13.60;9.67;;;7.00;99.90;;;;;;5117298;28;20945;-51
2022/03/11 02:30:30;;;;;;;12.13;9.90;;;7.00;99.90;;;;;;5117867;28;20520;-55
2022/03/11 02:32:59;;;;;;;11.47;9.23;;;6.90;99.90;;;;;;5114912;28;21435;-53
2022/03/11 02:35:32;;;;;;;13.10;9.50;;;6.90;99.90;;;;;;5096886;28;20471;-56
2022/03/11 02:38:05;;;;;;;11.60;8.60;;;6.90;99.90;;;;;;5097076;28;20458;-53
2022/03/11 02:40:36;;;;;;;12.17;9.40;;;6.80;99.90;;;;;;5096865;28;20470;-51
2022/03/11 02:43:06;;;;;;;14.07;9.90;;;6.80;99.90;;;;;;5098597;28;20515;-56
2022/03/11 02:45:33;;;;;;;12.70;9.13;;;6.80;99.90;;;;;;5096522;28;20468;-59
2022/03/11 02:48:00;;;;;;;13.50;9.50;;;6.70;99.90;;;;;;5096899;28;20509;-52
2022/03/11 02:50:27;;;;;;;11.87;9.27;;;6.70;99.90;;;;;;5111003;28;20509;-59
2022/03/11 02:52:57;;;;;;;12.20;9.20;;;6.70;99.90;;;;;;5117630;28;20513;-59
2022/03/11 02:55:24;;;;;;;15.67;10.63;;;6.70;99.90;;;;;;5106030;28;20516;-57
2022/03/11 02:57:54;;;;;;;14.20;10.07;;;6.60;99.90;;;;;;5117588;28;20824;-59
2022/03/11 03:00:21;;;;;;;11.63;10.07;;;6.60;99.90;;;;;;5119151;28;20941;-59
2022/03/11 03:02:51;;;;;;;11.70;9.00;;;6.60;99.90;;;;;;5119052;28;20468;-54
2022/03/11 03:05:19;;;;;;;11.53;9.87;;;6.60;99.90;;;;;;5106484;28;20945;-57
2022/03/11 03:07:46;;;;;;;12.93;8.73;;;6.50;99.90;;;;;;5101903;28;20454;-57
2022/03/11 03:10:15;;;;;;;13.70;10.40;;;6.50;99.90;;;;;;5116751;28;20462;-58
2022/03/11 03:12:48;;;;;;;14.50;11.10;;;6.40;99.90;;;;;;5118321;28;20921;-60
2022/03/11 03:15:21;;;;;;;14.60;8.93;;;6.40;99.90;;;;;;5119126;28;20463;-55
2022/03/11 03:17:50;;;;;;;13.80;9.93;;;6.40;99.90;;;;;;5119979;28;20464;-57
2022/03/11 03:20:19;;;;;;;12.03;9.97;;;6.40;99.90;;;;;;5117651;28;20527;-59
2022/03/11 03:22:46;;;;;;;15.90;10.13;;;6.30;99.90;;;;;;5118725;28;20461;-59
2022/03/11 03:25:14;;;;;;;12.13;9.50;;;6.20;99.90;;;;;;5115940;28;20528;-57
2022/03/11 03:27:44;;;;;;;15.17;9.70;;;6.20;99.90;;;;;;5116172;28;20463;-56
2022/03/11 03:30:14;;;;;;;14.03;9.67;;;6.20;99.90;;;;;;5110812;28;20456;-57
2022/03/11 03:32:45;;;;;;;12.50;9.37;;;6.10;99.90;;;;;;5119270;28;20463;-53
2022/03/11 03:35:15;;;;;;;13.13;10.13;;;6.10;99.90;;;;;;5119502;28;20504;-56
2022/03/11 03:37:42;;;;;;;13.20;9.60;;;6.10;99.90;;;;;;5117952;28;20508;-57
2022/03/11 03:40:16;;;;;;;12.53;10.57;;;6.20;99.90;;;;;;5118908;28;20537;-55
2022/03/11 03:42:47;;;;;;;14.73;10.07;;;6.20;99.90;;;;;;5118151;28;20811;-50
2022/03/11 03:45:14;;;;;;;15.20;11.80;;;6.10;99.90;;;;;;5103800;28;20466;-57
2022/03/11 03:47:42;;;;;;;16.43;10.20;;;6.10;99.90;;;;;;5110617;28;20529;-53
2022/03/11 03:50:13;;;;;;;13.23;10.50;;;6.10;99.90;;;;;;5114661;28;20540;-58
2022/03/11 03:52:42;;;;;;;16.00;10.67;;;6.10;99.90;;;;;;5115948;28;20482;-53
2022/03/11 03:55:13;;;;;;;17.17;10.33;;;6.10;99.90;;;;;;5115590;28;20503;-56
2022/03/11 03:57:40;;;;;;;14.80;11.50;;;6.00;99.90;;;;;;5116586;28;20555;-58
2022/03/11 04:00:09;;;;;;;16.37;10.00;;;6.00;99.90;;;;;;5118564;28;20498;-58
2022/03/11 04:02:36;;;;;;;14.23;10.60;;;5.90;99.90;;;;;;5104641;28;20536;-55
2022/03/11 04:05:09;;;;;;;13.97;11.10;;;5.90;99.90;;;;;;5119626;28;20503;-59
2022/03/11 04:07:39;;;;;;;15.00;11.53;;;5.80;99.90;;;;;;5112960;28;20460;-58
2022/03/11 04:10:07;;;;;;;15.97;11.47;;;5.80;99.90;;;;;;5118485;28;20452;-57
2022/03/11 04:12:34;;;;;;;13.33;10.80;;;5.80;99.90;;;;;;5119387;28;20459;-56
2022/03/11 04:15:06;;;;;;;14.00;11.10;;;5.80;99.90;;;;;;5114509;28;20470;-53
2022/03/11 04:17:38;;;;;;;14.77;10.70;;;5.70;99.90;;;;;;5120769;28;20928;-59
2022/03/11 04:20:11;;;;;;;17.67;12.73;;;5.70;99.90;;;;;;5113260;28;21033;-58
2022/03/11 04:22:43;;;;;;;17.47;13.03;;;5.70;99.90;;;;;;5110613;28;20791;-59
2022/03/11 04:25:11;;;;;;;13.83;10.80;;;5.60;99.90;;;;;;5117830;28;20459;-59
2022/03/11 04:27:39;;;;;;;14.33;9.70;;;5.50;99.90;;;;;;5119261;28;20467;-57
2022/03/11 04:30:08;;;;;;;16.43;11.67;;;5.60;99.90;;;;;;5121641;28;20499;-59
2022/03/11 04:32:35;;;;;;;14.23;11.97;;;5.60;99.90;;;;;;5120274;28;20467;-57
2022/03/11 04:35:03;;;;;;;13.80;11.60;;;5.60;99.90;;;;;;5118702;28;20470;-57
2022/03/11 04:37:34;;;;;;;16.93;12.33;;;5.60;99.90;;;;;;5116984;28;20516;-58
2022/03/11 04:40:13;;;;;;;16.77;12.13;;;5.50;99.90;;;;;;5114827;28;20499;-57
2022/03/11 04:42:46;;;;;;;17.27;11.50;;;5.50;99.90;;;;;;5120682;28;20499;-56
2022/03/11 04:45:18;;;;;;;20.53;11.90;;;5.40;99.90;;;;;;5114632;28;20457;-53
2022/03/11 04:47:46;;;;;;;20.50;13.40;;;5.40;99.90;;;;;;5116643;28;20924;-57
2022/03/11 04:50:13;;;;;;;15.13;12.00;;;5.40;99.90;;;;;;5117151;28;20475;-53
2022/03/11 04:52:43;;;;;;;18.77;12.20;;;5.40;99.90;;;;;;5116583;28;20463;-57
2022/03/11 04:55:10;;;;;;;18.03;13.07;;;5.40;99.90;;;;;;5115422;28;20498;-55
2022/03/11 04:57:43;;;;;;;15.80;12.03;;;5.40;99.90;;;;;;5114295;28;20471;-58
2022/03/11 05:00:12;;;;;;;17.77;12.90;;;5.30;99.90;;;;;;5115171;28;20899;-58
2022/03/11 05:02:40;;;;;;;16.70;12.63;;;5.30;99.90;;;;;;5119361;28;20897;-59
2022/03/11 05:05:16;;;;;;;19.20;14.30;;;5.30;99.90;;;;;;5105744;28;20908;-59
2022/03/11 05:07:45;;;;;;;17.40;13.07;;;5.20;99.90;;;;;;5113225;28;20455;-59
2022/03/11 05:10:15;;;;;;;18.97;12.80;;;5.20;99.90;;;;;;5118574;28;20473;-59
2022/03/11 05:12:49;;;;;;;16.40;12.33;;;5.10;99.90;;;;;;5119297;28;20468;-59
2022/03/11 05:15:24;;;;;;;18.10;13.10;;;5.10;99.90;;;;;;5119480;28;20893;-59
2022/03/11 05:17:56;;;;;;;18.30;14.37;;;5.10;99.90;;;;;;5119454;28;20459;-59
2022/03/11 05:20:25;;;;;;;20.90;12.63;;;5.10;99.90;;;;;;5116656;28;20965;-59
2022/03/11 05:22:54;;;;;;;19.00;14.10;;;5.00;99.90;;;;;;5107594;28;20464;-59
2022/03/11 05:25:21;;;;;;;22.20;12.93;;;5.00;99.90;;;;;;5120095;28;20463;-59
2022/03/11 05:27:48;;;;;;;19.73;14.60;;;4.90;99.90;;;;;;5120250;28;20889;-59
2022/03/11 05:30:20;;;;;;;20.33;15.07;;;5.00;99.90;;;;;;5120383;28;20516;-57
2022/03/11 05:32:48;;;;;;;24.60;15.80;;;5.00;99.90;;;;;;5120095;28;20551;-58
2022/03/11 05:35:15;;;;;;;17.57;13.07;;;4.90;99.90;;;;;;5118449;28;20459;-55
2022/03/11 05:37:46;;;;;;;21.97;14.20;;;4.90;99.90;;;;;;5120197;28;20813;-59
2022/03/11 05:40:17;;;;;;;18.43;14.60;;;4.90;99.90;;;;;;5120574;28;20936;-57
2022/03/11 05:42:44;;;;;;;22.60;14.17;;;4.80;99.90;;;;;;5116233;28;20920;-59
2022/03/11 05:45:14;;;;;;;23.93;14.00;;;4.80;99.90;;;;;;5120722;28;20961;-57
2022/03/11 05:47:43;;;;;;;19.30;14.37;;;4.80;99.90;;;;;;5120814;28;20494;-60
2022/03/11 05:50:13;;;;;;;21.63;14.57;;;4.80;99.90;;;;;;5121037;28;20456;-56
2022/03/11 05:52:45;;;;;;;24.00;15.40;;;4.80;99.90;;;;;;5117827;28;20456;-57
2022/03/11 05:55:17;;;;;;;18.33;14.90;;;4.80;99.90;;;;;;5120708;28;20467;-58
2022/03/11 05:57:47;;;;;;;25.10;15.90;;;4.70;99.90;;;;;;5106162;28;20780;-59
2022/03/11 06:00:17;;;;;;;21.60;15.40;;;4.70;99.90;;;;;;5120166;28;20540;-57
2022/03/11 06:02:44;;;;;;;20.33;14.87;;;4.70;99.90;;;;;;5119147;28;20482;-51
2022/03/11 06:05:15;;;;;;;21.10;16.63;;;4.70;99.90;;;;;;5117240;28;20826;-56
2022/03/11 06:07:44;;;;;;;19.00;14.07;;;4.60;99.90;;;;;;5117962;28;20491;-54
2022/03/11 06:10:11;;;;;;;21.57;14.83;;;4.60;99.90;;;;;;5117020;28;20908;-53
2022/03/11 06:12:40;;;;;;;24.43;17.00;;;4.60;99.90;;;;;;5107929;28;20457;-56
2022/03/11 06:15:08;;;;;;;19.60;14.80;;;4.60;99.90;;;;;;5113792;28;20463;-58
2022/03/11 06:17:36;;;;;;;21.50;15.10;;;4.50;99.90;;;;;;5103367;28;20507;-54
2022/03/11 06:20:08;;;;;;;24.67;15.80;;;4.50;99.90;;;;;;5106700;28;20533;-56
2022/03/11 06:22:36;;;;;;;23.10;16.40;;;4.60;99.90;;;;;;5105219;28;20456;-60
2022/03/11 06:25:03;;;;;;;21.67;16.23;;;4.50;99.90;;;;;;5106494;28;20475;-54
2022/03/11 06:27:30;;;;;;;22.30;14.87;;;4.60;99.90;;;;;;5105782;28;20509;-60
2022/03/11 06:30:06;;;;;;;25.13;16.17;;;4.60;99.90;;;;;;5108169;28;20459;-56
2022/03/11 06:32:33;;;;;;;20.10;15.00;;;4.60;99.90;;;;;;5106467;28;20463;-57
2022/03/11 06:35:06;;;;;;;19.83;15.37;;;4.60;99.90;;;;;;5106696;28;20449;-57
2022/03/11 06:37:36;;;;;;;22.67;16.20;;;4.60;99.90;;;;;;5100585;28;20521;-61
2022/03/11 06:40:05;;;;;;;19.17;13.10;;;4.60;99.90;;;;;;5112504;28;20497;-60
2022/03/11 06:42:36;;;;;;;24.80;16.40;;;4.70;99.90;;;;;;5114706;28;20489;-55
2022/03/11 06:45:10;;;;;;;27.83;15.47;;;4.70;99.90;;;;;;5115903;28;20460;-58
2022/03/11 06:47:44;;;;;;;19.90;15.30;;;4.70;99.90;;;;;;5115711;28;20811;-59
2022/03/11 06:50:12;;;;;;;23.47;16.07;;;4.70;99.90;;;;;;5115729;28;20492;-58
2022/03/11 06:52:39;;;;;;;22.57;13.87;;;4.80;99.90;;;;;;5114573;28;20837;-54
2022/03/11 06:55:07;;;;;;;19.43;15.00;;;4.80;99.90;;;;;;5114750;28;20516;-59
2022/03/11 06:57:41;;;;;;;25.53;16.00;;;4.70;99.90;;;;;;5114761;28;20456;-56
2022/03/11 07:00:13;;;;;;;25.43;17.57;;;4.90;99.90;;;;;;5103378;28;20480;-60
2022/03/11 07:02:44;;;;;;;23.27;15.00;;;5.00;99.90;;;;;;5115035;28;20917;-56
2022/03/11 07:05:12;;;;;;;23.10;15.20;;;5.10;99.90;;;;;;5117394;28;20463;-58
2022/03/11 07:07:41;;;;;;;23.03;16.60;;;5.20;99.90;;;;;;5113006;28;20912;-58
2022/03/11 07:10:10;;;;;;;25.17;15.93;;;5.20;99.90;;;;;;5113953;28;20459;-57
2022/03/11 07:12:41;;;;;;;23.53;17.17;;;5.40;99.90;;;;;;5115781;28;20520;-56
2022/03/11 07:15:15;;;;;;;41.80;17.60;;;5.50;99.90;;;;;;5110727;28;20463;-58
2022/03/11 07:17:42;;;;;;;25.03;15.30;;;5.60;99.90;;;;;;5103790;28;20888;-60
2022/03/11 07:20:10;;;;;;;21.93;16.80;;;5.70;99.90;;;;;;5115103;28;20925;-59
2022/03/11 07:22:42;;;;;;;25.70;16.10;;;5.80;99.90;;;;;;5113211;28;20467;-59
2022/03/11 07:25:16;;;;;;;19.87;15.73;;;5.90;99.90;;;;;;5110010;28;20509;-58
2022/03/11 07:27:45;;;;;;;25.80;17.20;;;6.10;99.90;;;;;;5117291;28;20944;-54
2022/03/11 07:30:17;;;;;;;23.03;16.90;;;6.10;99.90;;;;;;5116925;28;20884;-55
2022/03/11 07:32:46;;;;;;;20.03;14.43;;;6.20;99.90;;;;;;5115930;28;20465;-57
2022/03/11 07:35:16;;;;;;;23.50;16.10;;;6.20;99.90;;;;;;5101490;28;20465;-59
2022/03/11 07:37:51;;;;;;;21.10;15.97;;;6.30;99.90;;;;;;5100343;28;20889;-59
2022/03/11 07:40:25;;;;;;;24.63;16.63;;;6.40;99.90;;;;;;5107436;28;20573;-57
2022/03/11 07:42:59;;;;;;;28.80;15.57;;;6.60;99.90;;;;;;5120422;28;20760;-57
2022/03/11 07:45:30;;;;;;;22.63;16.70;;;6.60;99.90;;;;;;5098969;28;20474;-59
2022/03/11 07:47:57;;;;;;;19.00;14.40;;;6.70;99.90;;;;;;5120505;28;20473;-56
2022/03/11 07:50:24;;;;;;;26.00;15.60;;;6.70;99.90;;;;;;5119201;28;20808;-58
2022/03/11 07:52:55;;;;;;;19.10;15.57;;;6.80;99.90;;;;;;5119271;28;20497;-58
2022/03/11 07:55:22;;;;;;;25.07;17.43;;;7.10;99.90;;;;;;5109685;28;20463;-58
2022/03/11 07:57:51;;;;;;;26.07;17.43;;;7.00;99.90;;;;;;5099643;28;20467;-60
2022/03/11 08:00:21;;;;;;;30.67;20.57;;;7.10;99.90;;;;;;5100018;28;20967;-60
2022/03/11 08:02:57;;;;;;;22.03;16.70;;;7.40;99.90;;;;;;5112927;28;20789;-61
2022/03/11 08:05:24;;;;;;;22.70;16.07;;;7.40;99.90;;;;;;5115319;28;20463;-60
2022/03/11 08:07:52;;;;;;;26.67;18.80;;;7.40;99.90;;;;;;5119235;28;20467;-59
2022/03/11 08:10:20;;;;;;;23.53;18.10;;;7.40;99.90;;;;;;5116326;28;20466;-60
2022/03/11 08:12:48;;;;;;;28.90;21.90;;;7.40;99.90;;;;;;5107245;28;20504;-61
2022/03/11 08:15:21;;;;;;;23.87;16.87;;;7.50;99.90;;;;;;5111951;28;20471;-61
2022/03/11 08:17:51;;;;;;;23.23;16.67;;;7.70;99.90;;;;;;5116659;28;20481;-60
2022/03/11 08:20:20;;;;;;;22.70;17.70;;;7.60;99.90;;;;;;5108280;28;20520;-59
2022/03/11 08:22:48;;;;;;;24.00;18.50;;;7.90;99.90;;;;;;5098622;28;20811;-58
2022/03/11 08:25:26;;;;;;;24.10;19.00;;;8.10;99.90;;;;;;5099427;28;20832;-58
2022/03/11 08:27:57;;;;;;;17.67;14.30;;;8.20;99.90;;;;;;5099407;28;20503;-57
2022/03/11 08:30:27;;;;;;;31.77;18.73;;;8.40;99.90;;;;;;5099491;28;20452;-57
2022/03/11 08:32:55;;;;;;;24.23;18.37;;;8.70;99.90;;;;;;5099744;28;20460;-58
2022/03/11 08:35:24;;;;;;;23.60;17.90;;;8.60;99.90;;;;;;5118967;28;20459;-57
2022/03/11 08:38:06;;;;;;;23.70;17.07;;;8.70;99.90;;;;;;5107743;28;20747;-55
2022/03/11 08:40:35;;;;;;;24.50;17.77;;;8.70;99.90;;;;;;5105064;28;20483;-57
2022/03/11 08:43:06;;;;;;;21.10;16.20;;;8.70;99.90;;;;;;5100735;28;20457;-56
2022/03/11 08:45:33;;;;;;;23.53;17.63;;;9.00;99.90;;;;;;5104373;28;20464;-56
2022/03/11 08:48:01;;;;;;;27.30;18.80;;;9.10;99.90;;;;;;5103445;28;20469;-54
2022/03/11 08:50:29;;;;;;;24.70;18.87;;;9.10;99.90;;;;;;5102650;28;20456;-54
2022/03/11 08:53:03;;;;;;;20.83;16.77;;;9.30;99.90;;;;;;5117407;28;20459;-53
2022/03/11 08:55:30;;;;;;;23.93;17.33;;;9.50;99.90;;;;;;5116050;28;20455;-55
2022/03/11 08:58:02;;;;;;;20.63;16.27;;;9.60;99.90;;;;;;5117814;28;20509;-57
2022/03/11 09:00:29;;;;;;;21.20;16.63;;;9.60;99.90;;;;;;5116467;28;20540;-58
2022/03/11 09:03:00;;;;;;;19.70;16.30;;;9.40;99.90;;;;;;5117843;28;20467;-55
2022/03/11 09:05:29;;;;;;;24.60;17.90;;;9.50;99.90;;;;;;5105143;28;20553;-56
2022/03/11 09:07:58;;;;;;;22.57;16.77;;;9.50;99.90;;;;;;5097328;28;20514;-54
2022/03/11 09:10:25;;;;;;;19.13;15.87;;;9.50;99.90;;;;;;5114885;28;20455;-57
2022/03/11 09:13:03;;;;;;;21.10;17.70;;;9.50;99.90;;;;;;5118576;28;20761;-58
2022/03/11 09:15:30;;;;;;;16.97;14.43;;;9.60;99.90;;;;;;5113359;28;20460;-54
2022/03/11 09:17:59;;;;;;;22.67;16.50;;;10.00;99.90;;;;;;5118647;28;20802;-54
2022/03/11 09:20:32;;;;;;;26.67;18.00;;;10.00;99.90;;;;;;5107171;28;20809;-55
2022/03/11 09:22:59;;;;;;;20.97;15.83;;;10.20;99.90;;;;;;5097969;28;20514;-58
2022/03/11 09:25:29;;;;;;;24.40;17.40;;;10.30;99.90;;;;;;5101634;28;20861;-58
2022/03/11 09:27:56;;;;;;;27.00;18.20;;;10.10;99.90;;;;;;5118399;28;20509;-57
2022/03/11 09:30:23;;;;;;;19.30;16.60;;;10.50;99.90;;;;;;5110723;28;20533;-57
2022/03/11 09:32:50;;;;;;;23.03;16.47;;;10.40;99.90;;;;;;5104956;28;20456;-56
2022/03/11 09:35:20;;;;;;;21.10;16.43;;;10.10;99.90;;;;;;5114360;28;20483;-59
2022/03/11 09:37:55;;;;;;;20.53;16.43;;;10.10;99.90;;;;;;5117294;28;20459;-55
2022/03/11 09:40:24;;;;;;;20.87;16.00;;;10.60;99.90;;;;;;5118176;28;20462;-54
2022/03/11 09:42:54;;;;;;;18.03;15.13;;;10.60;99.90;;;;;;5118571;28;20932;-55
2022/03/11 09:45:30;;;;;;;18.20;14.90;;;10.60;99.90;;;;;;5118425;28;20627;-58
2022/03/11 09:47:57;;;;;;;23.93;15.60;;;10.70;99.90;;;;;;5100030;28;20464;-55
2022/03/11 09:50:25;;;;;;;21.97;15.40;;;11.00;99.90;;;;;;5097409;28;20833;-57
2022/03/11 09:52:57;;;;;;;21.23;15.70;;;11.30;99.90;;;;;;5112922;28;20459;-56
2022/03/11 09:55:27;;;;;;;19.40;15.77;;;11.00;99.90;;;;;;5107222;28;20929;-57
2022/03/11 09:57:59;;;;;;;19.03;15.43;;;11.30;99.90;;;;;;5111563;28;20958;-58
2022/03/11 10:00:31;;;;;;;19.90;15.60;;;11.80;99.90;;;;;;5117847;28;20459;-55
2022/03/11 10:02:58;;;;;;;17.30;14.77;;;12.30;99.90;;;;;;5107087;28;20460;-56
2022/03/11 10:06:02;;;;;;;17.47;15.20;;;13.10;99.90;;;;;;5112162;28;20463;-52
2022/03/11 10:08:34;;;;;;;19.77;15.13;;;12.80;99.90;;;;;;5111270;28;20467;-55
2022/03/11 10:11:26;;;;;;;19.80;15.87;;;12.60;99.90;;;;;;5112937;28;20447;-54
2022/03/11 10:13:54;;;;;;;18.90;16.87;;;12.60;99.90;;;;;;5098394;28;20554;-58
2022/03/11 10:16:25;;;;;;;18.83;16.00;;;12.50;99.90;;;;;;5117438;28;20513;-57
2022/03/11 10:19:02;;;;;;;18.33;15.57;;;12.70;99.90;;;;;;5095830;28;20458;-58
2022/03/11 10:21:34;;;;;;;20.70;16.20;;;12.90;99.90;;;;;;5115952;28;20487;-58
2022/03/11 10:24:07;;;;;;;21.67;16.77;;;12.60;99.90;;;;;;5116704;28;20459;-58
2022/03/11 10:26:39;;;;;;;19.43;16.30;;;12.50;99.90;;;;;;5118353;28;20885;-58
2022/03/11 10:29:10;;;;;;;20.70;16.87;;;12.70;99.90;;;;;;5116909;28;20885;-57
2022/03/11 10:31:43;;;;;;;19.43;15.30;;;12.70;99.90;;;;;;5117784;28;20451;-57
2022/03/11 10:34:20;;;;;;;21.07;16.27;;;12.80;99.90;;;;;;5102290;28;20464;-58
2022/03/11 10:36:50;;;;;;;18.30;16.40;;;13.10;99.90;;;;;;5105421;28;20463;-58
2022/03/11 10:39:21;;;;;;;20.27;16.37;;;13.30;99.90;;;;;;5117129;28;20527;-56
2022/03/11 10:41:50;;;;;;;17.67;15.77;;;13.30;99.90;;;;;;5118544;28;20495;-57
2022/03/11 10:44:19;;;;;;;18.60;16.53;;;13.50;99.90;;;;;;5117624;28;20483;-57
2022/03/11 10:46:46;;;;;;;18.67;16.67;;;14.00;99.90;;;;;;5118328;28;20961;-57
2022/03/11 10:49:31;;;;;;;18.83;15.53;;;13.50;99.90;;;;;;5116292;28;20459;-58
2022/03/11 10:52:04;;;;;;;19.87;17.20;;;13.30;99.90;;;;;;5118438;28;20483;-58
2022/03/11 10:54:34;;;;;;;17.90;15.40;;;13.10;99.90;;;;;;5113995;28;20947;-58
2022/03/11 10:57:14;;;;;;;18.03;16.13;;;13.00;99.90;;;;;;5097381;28;20484;-57
2022/03/11 10:59:42;;;;;;;18.53;14.73;;;12.80;99.90;;;;;;5097133;28;20460;-58
2022/03/11 11:02:11;;;;;;;19.33;16.40;;;12.80;99.90;;;;;;5097340;28;20492;-58
2022/03/11 11:04:39;;;;;;;18.33;15.57;;;13.20;99.90;;;;;;5100132;28;20460;-58
2022/03/11 11:07:09;;;;;;;19.57;16.00;;;13.50;99.90;;;;;;5122734;28;20508;-58
2022/03/11 11:09:38;;;;;;;18.13;15.87;;;13.80;99.90;;;;;;5120747;28;20467;-58
2022/03/11 11:12:11;;;;;;;19.40;15.37;;;13.80;99.90;;;;;;5122578;28;20455;-58
2022/03/11 11:14:38;;;;;;;17.73;15.60;;;13.80;99.90;;;;;;5122668;28;20495;-58
2022/03/11 11:17:12;;;;;;;21.97;16.67;;;13.90;99.90;;;;;;5102372;28;20459;-58
2022/03/11 11:19:46;;;;;;;20.80;17.17;;;14.00;99.90;;;;;;5107777;28;20532;-58
2022/03/11 11:22:15;;;;;;;19.43;16.27;;;13.70;99.90;;;;;;5120725;28;20522;-58
2022/03/11 11:24:44;;;;;;;17.60;15.77;;;13.80;99.90;;;;;;5122773;28;20455;-58
2022/03/11 11:27:14;;;;;;;16.40;14.67;;;14.20;99.90;;;;;;5104470;28;20971;-58
2022/03/11 11:29:43;;;;;;;18.77;15.80;;;14.40;99.90;;;;;;5102390;28;20898;-56
2022/03/11 11:32:10;;;;;;;18.27;15.30;;;14.60;99.90;;;;;;5113084;28;20457;-58
2022/03/11 11:34:38;;;;;;;18.00;16.10;;;14.50;99.90;;;;;;5108865;28;20464;-58
2022/03/11 11:37:10;;;;;;;20.30;16.10;;;15.00;99.90;;;;;;5120680;28;20823;-59
2022/03/11 11:39:40;;;;;;;18.10;16.10;;;15.40;99.90;;;;;;5108426;28;20788;-59
2022/03/11 11:42:14;;;;;;;17.87;15.80;;;15.80;99.90;;;;;;5119521;28;20493;-59
2022/03/11 11:44:43;;;;;;;17.57;15.77;;;15.30;99.90;;;;;;5122109;28;20463;-59
2022/03/11 11:47:14;;;;;;;17.47;15.63;;;15.50;99.90;;;;;;5116678;28;20465;-59
2022/03/11 11:49:51;;;;;;;17.40;15.70;;;15.60;99.90;;;;;;5121966;28;20467;-59
2022/03/11 11:52:29;;;;;;;17.93;16.03;;;15.60;99.90;;;;;;5106597;28;20456;-59
2022/03/11 11:55:23;;;;;;;21.10;16.03;;;15.60;99.90;;;;;;5100863;28;20518;-59
2022/03/11 11:57:53;;;;;;;18.23;16.20;;;15.00;99.90;;;;;;5096747;28;20463;-59
2022/03/11 12:00:36;;;;;;;18.60;14.77;;;14.70;99.90;;;;;;5121255;28;20483;-59
2022/03/11 12:03:10;;;;;;;20.43;15.70;;;15.10;99.90;;;;;;5118424;28;20555;-59
2022/03/11 12:05:47;;;;;;;18.03;15.83;;;15.20;99.90;;;;;;5100626;28;20455;-58
2022/03/11 12:08:46;;;;;;;16.87;15.07;;;15.30;99.90;;;;;;5099104;28;20464;-59
2022/03/11 12:11:38;;;;;;;19.17;15.57;;;15.20;99.90;;;;;;5099776;28;20464;-57
2022/03/11 12:14:13;;;;;;;20.30;14.90;;;15.20;99.90;;;;;;5100881;28;20563;-57
2022/03/11 12:17:08;;;;;;;16.60;14.90;;;15.30;99.90;;;;;;5099457;28;20475;-57
2022/03/11 12:19:48;;;;;;;17.43;15.17;;;15.30;99.90;;;;;;5113720;28;20453;-56
2022/03/11 12:22:52;;;;;;;18.40;15.17;;;15.30;99.90;;;;;;5099918;28;20530;-57
2022/03/11 12:25:25;;;;;;;16.57;14.50;;;15.30;99.90;;;;;;5090686;28;20543;-57
2022/03/11 12:28:03;;;;;;;15.93;14.33;;;15.20;99.90;;;;;;5098880;28;20460;-57
2022/03/11 12:30:38;;;;;;;18.73;14.63;;;15.40;99.90;;;;;;5100840;28;20524;-58
2022/03/11 12:33:07;;;;;;;18.90;15.10;;;15.60;99.90;;;;;;5116127;28;20945;-55
2022/03/11 12:35:36;;;;;;;16.13;14.43;;;15.50;99.90;;;;;;5110248;28;20529;-59
2022/03/11 12:38:04;;;;;;;17.13;15.53;;;15.50;99.90;;;;;;5110433;28;20470;-58
2022/03/11 12:40:33;;;;;;;17.10;15.30;;;15.50;99.90;;;;;;5105161;28;20461;-59
2022/03/11 12:43:16;;;;;;;21.33;16.03;;;15.60;99.90;;;;;;5111113;28;20846;-58
2022/03/11 12:45:54;;;;;;;15.80;14.20;;;15.80;99.90;;;;;;5119190;28;20789;-58
2022/03/11 12:48:28;;;;;;;20.40;15.70;;;15.50;99.90;;;;;;5117175;28;20452;-59
2022/03/11 12:50:59;;;;;;;20.70;16.37;;;15.50;99.90;;;;;;5104803;28;20467;-59
2022/03/11 12:53:26;;;;;;;19.10;15.90;;;15.60;99.90;;;;;;5115359;28;20455;-57
2022/03/11 12:56:01;;;;;;;17.47;14.83;;;15.60;99.90;;;;;;5111750;28;20795;-59